createdAt,value
2017-09-21T00:01:59.765Z,37.07
2017-09-21T00:04:29.519Z,38.27
2017-09-21T00:06:58.496Z,41.20
2017-09-21T00:09:27.876Z,38.90
2017-09-21T00:11:57.616Z,34.80
2017-09-21T00:14:26.620Z,40.60
2017-09-21T00:16:55.581Z,41.47
2017-09-21T00:19:24.544Z,41.87
2017-09-21T00:21:53.549Z,40.07
2017-09-21T00:24:23.306Z,35.57
2017-09-21T00:26:52.320Z,43.17
2017-09-21T00:29:21.306Z,38.57
2017-09-21T00:31:50.290Z,43.40
2017-09-21T00:34:19.254Z,42.57
2017-09-21T00:36:48.244Z,42.47
2017-09-21T00:39:17.228Z,40.77
2017-09-21T00:41:46.728Z,41.03
2017-09-21T00:44:15.725Z,38.63
2017-09-21T00:46:44.685Z,39.77
2017-09-21T00:49:14.448Z,41.60
2017-09-21T00:51:43.808Z,44.90
2017-09-21T00:54:13.576Z,44.53
2017-09-21T00:56:42.545Z,40.77
2017-09-21T00:59:11.528Z,40.50
2017-09-21T01:01:40.497Z,40.03
2017-09-21T01:04:10.271Z,42.63
2017-09-21T01:06:39.221Z,43.40
2017-09-21T01:09:08.247Z,43.10
2017-09-21T01:11:37.269Z,46.10
2017-09-21T01:14:06.252Z,41.50
2017-09-21T01:16:40.136Z,39.30
2017-09-21T01:19:09.129Z,44.80
2017-09-21T01:21:38.081Z,44.90
2017-09-21T01:24:07.076Z,49.07
2017-09-21T01:26:36.058Z,46.43
2017-09-21T01:29:05.457Z,46.07
2017-09-21T01:31:34.553Z,42.87
2017-09-21T01:34:03.938Z,44.23
2017-09-21T01:36:33.708Z,44.23
2017-09-21T01:39:03.477Z,40.87
2017-09-21T01:41:32.959Z,43.17
2017-09-21T01:44:02.340Z,43.63
2017-09-21T01:46:31.380Z,48.87
2017-09-21T01:49:00.372Z,46.83
2017-09-21T01:51:29.737Z,47.60
2017-09-21T01:53:58.717Z,44.10
2017-09-21T01:56:27.719Z,44.50
2017-09-21T01:58:56.766Z,42.20
2017-09-21T02:01:26.139Z,43.50
2017-09-21T02:03:55.105Z,43.90
2017-09-21T02:06:24.092Z,43.60
2017-09-21T02:08:53.057Z,44.67
2017-09-21T02:11:22.040Z,45.00
2017-09-21T02:13:50.997Z,45.67
2017-09-21T02:16:20.044Z,44.20
2017-09-21T02:18:49.008Z,41.73
2017-09-21T02:21:17.993Z,39.30
2017-09-21T02:23:46.988Z,41.77
2017-09-21T02:26:15.985Z,40.93
2017-09-21T02:28:44.939Z,37.20
2017-09-21T02:31:13.930Z,40.60
2017-09-21T02:33:44.105Z,37.53
2017-09-21T02:36:13.077Z,44.90
2017-09-21T02:38:42.232Z,43.10
2017-09-21T02:41:11.186Z,42.80
2017-09-21T02:43:40.148Z,40.93
2017-09-21T02:46:09.169Z,45.90
2017-09-21T02:48:38.199Z,41.17
2017-09-21T02:51:07.932Z,38.53
2017-09-21T02:53:36.929Z,48.80
2017-09-21T02:56:05.889Z,45.30
2017-09-21T02:58:35.648Z,46.73
2017-09-21T03:01:04.624Z,44.40
2017-09-21T03:03:34.756Z,42.43
2017-09-21T03:06:04.424Z,43.40
2017-09-21T03:08:34.827Z,45.90
2017-09-21T03:11:08.513Z,41.37
2017-09-21T03:13:37.504Z,44.70
2017-09-21T03:16:06.485Z,45.50
2017-09-21T03:18:35.447Z,42.53
2017-09-21T03:21:04.440Z,46.20
2017-09-21T03:23:33.395Z,44.07
2017-09-21T03:26:02.398Z,44.23
2017-09-21T03:28:31.357Z,44.13
2017-09-21T03:31:00.346Z,44.73
2017-09-21T03:33:29.308Z,45.60
2017-09-21T03:35:58.312Z,49.83
2017-09-21T03:38:27.299Z,44.00
2017-09-21T03:40:56.695Z,48.50
2017-09-21T03:43:26.449Z,44.20
2017-09-21T03:45:56.201Z,42.23
2017-09-21T03:48:25.186Z,43.30
2017-09-21T03:50:54.625Z,42.13
2017-09-21T03:53:23.638Z,45.87
2017-09-21T03:55:52.597Z,39.73
2017-09-21T03:58:21.591Z,41.07
2017-09-21T04:00:50.572Z,43.03
2017-09-21T04:03:19.564Z,46.67
2017-09-21T04:05:48.926Z,43.07
2017-09-21T04:08:18.337Z,39.73
2017-09-21T04:10:48.053Z,39.70
2017-09-21T04:13:17.039Z,44.43
2017-09-21T04:15:46.085Z,43.30
2017-09-21T04:18:15.049Z,45.83
2017-09-21T04:20:44.217Z,40.23
2017-09-21T04:23:13.933Z,46.97
2017-09-21T04:25:42.960Z,40.00
2017-09-21T04:28:12.343Z,39.70
2017-09-21T04:30:41.719Z,43.90
2017-09-21T04:33:11.128Z,46.00
2017-09-21T04:35:40.845Z,41.00
2017-09-21T04:38:09.838Z,49.47
2017-09-21T04:40:39.599Z,42.77
2017-09-21T04:43:08.601Z,45.67
2017-09-21T04:45:37.564Z,42.77
2017-09-21T04:48:06.556Z,45.87
2017-09-21T04:50:35.528Z,44.23
2017-09-21T04:53:04.540Z,51.03
2017-09-21T04:55:33.500Z,50.13
2017-09-21T04:58:02.503Z,47.60
2017-09-21T05:00:31.453Z,42.50
2017-09-21T05:03:00.411Z,49.10
2017-09-21T05:05:29.400Z,41.73
2017-09-21T05:07:58.367Z,42.50
2017-09-21T05:10:27.352Z,43.30
2017-09-21T05:12:56.301Z,44.23
2017-09-21T05:15:26.796Z,51.70
2017-09-21T05:17:55.771Z,47.30
2017-09-21T05:20:25.513Z,51.30
2017-09-21T05:22:54.472Z,47.20
2017-09-21T05:25:23.463Z,45.40
2017-09-21T05:27:52.455Z,48.03
2017-09-21T05:30:21.460Z,48.10
2017-09-21T05:32:50.504Z,46.60
2017-09-21T05:35:20.321Z,48.83
2017-09-21T05:37:49.443Z,46.80
2017-09-21T05:40:18.405Z,46.10
2017-09-21T05:42:47.365Z,45.57
2017-09-21T05:45:16.352Z,46.90
2017-09-21T05:47:45.337Z,47.20
2017-09-21T05:50:14.304Z,49.20
2017-09-21T05:52:43.298Z,45.10
2017-09-21T05:55:12.264Z,47.77
2017-09-21T05:57:41.351Z,51.63
2017-09-21T06:00:10.939Z,47.93
2017-09-21T06:02:39.931Z,44.80
2017-09-21T06:05:08.892Z,44.53
2017-09-21T06:07:37.960Z,44.43
2017-09-21T06:10:06.975Z,48.57
2017-09-21T06:12:35.992Z,52.17
2017-09-21T06:15:04.960Z,44.30
2017-09-21T06:17:33.944Z,44.97
2017-09-21T06:20:02.917Z,44.97
2017-09-21T06:22:31.893Z,40.60
2017-09-21T06:25:01.613Z,38.97
2017-09-21T06:27:30.645Z,41.47
2017-09-21T06:29:59.605Z,41.57
2017-09-21T06:32:28.588Z,40.47
2017-09-21T06:34:57.580Z,37.83
2017-09-21T06:37:26.566Z,42.73
2017-09-21T06:39:55.958Z,40.40
2017-09-21T06:42:25.691Z,37.70
2017-09-21T06:44:54.688Z,40.03
2017-09-21T06:47:23.663Z,37.80
2017-09-21T06:49:52.657Z,39.87
2017-09-21T06:52:21.638Z,38.72
2017-09-21T06:54:51.399Z,39.97
2017-09-21T06:57:20.353Z,39.27
2017-09-21T06:59:49.344Z,36.40
2017-09-21T07:02:18.302Z,39.73
2017-09-21T07:04:47.297Z,37.00
2017-09-21T07:07:16.269Z,40.43
2017-09-21T07:09:45.248Z,32.57
2017-09-21T07:12:14.223Z,35.93
2017-09-21T07:14:43.967Z,36.40
2017-09-21T07:17:12.953Z,33.53
2017-09-21T07:19:41.979Z,38.50
2017-09-21T07:22:11.723Z,36.07
2017-09-21T07:24:40.725Z,33.77
2017-09-21T07:27:09.690Z,33.43
2017-09-21T07:29:38.765Z,36.57
2017-09-21T07:32:08.517Z,35.83
2017-09-21T07:34:37.508Z,32.33
2017-09-21T07:37:06.880Z,36.17
2017-09-21T07:39:35.889Z,31.40
2017-09-21T07:42:04.884Z,36.13
2017-09-21T07:44:33.858Z,32.90
2017-09-21T07:47:02.860Z,32.10
2017-09-21T07:49:33.252Z,28.93
2017-09-21T07:52:02.231Z,32.10
2017-09-21T07:54:31.225Z,34.83
2017-09-21T07:57:00.263Z,32.30
2017-09-21T07:59:29.743Z,34.87
2017-09-21T08:01:58.739Z,30.70
2017-09-21T08:04:28.113Z,31.20
2017-09-21T08:06:57.505Z,31.97
2017-09-21T08:09:27.981Z,31.93
2017-09-21T08:11:57.336Z,29.10
2017-09-21T08:14:26.301Z,26.03
2017-09-21T08:16:55.286Z,28.10
2017-09-21T08:19:24.258Z,28.83
2017-09-21T08:21:53.260Z,27.03
2017-09-21T08:24:22.983Z,28.43
2017-09-21T08:26:51.984Z,25.87
2017-09-21T08:29:20.949Z,26.03
2017-09-21T08:31:49.947Z,26.50
2017-09-21T08:34:18.963Z,26.37
2017-09-21T08:36:47.911Z,25.47
2017-09-21T08:39:16.991Z,25.47
2017-09-21T08:41:46.378Z,23.57
2017-09-21T08:44:15.370Z,24.17
2017-09-21T08:46:44.333Z,24.90
2017-09-21T08:49:13.326Z,23.30
2017-09-21T08:51:42.275Z,24.53
2017-09-21T08:54:11.283Z,23.00
2017-09-21T08:56:40.252Z,23.17
2017-09-21T08:59:09.260Z,23.93
2017-09-21T09:01:38.352Z,21.50
2017-09-21T09:04:07.350Z,24.47
2017-09-21T09:06:36.437Z,20.40
2017-09-21T09:09:05.428Z,20.53
2017-09-21T09:11:34.436Z,19.93
2017-09-21T09:14:03.494Z,19.13
2017-09-21T09:16:32.521Z,21.57
2017-09-21T09:19:01.489Z,19.30
2017-09-21T09:21:30.469Z,19.00
2017-09-21T09:23:59.832Z,20.20
2017-09-21T09:26:28.816Z,18.47
2017-09-21T09:28:58.209Z,17.67
2017-09-21T09:31:27.965Z,18.03
2017-09-21T09:33:57.697Z,17.47
2017-09-21T09:36:26.683Z,16.47
2017-09-21T09:38:56.408Z,16.43
2017-09-21T09:41:25.398Z,15.50
2017-09-21T09:43:54.364Z,17.13
2017-09-21T09:46:24.125Z,19.70
2017-09-21T09:48:53.101Z,15.50
2017-09-21T09:51:22.108Z,16.10
2017-09-21T09:53:51.100Z,14.90
2017-09-21T09:56:20.056Z,15.20
2017-09-21T09:58:49.028Z,16.13
2017-09-21T10:01:18.793Z,13.47
2017-09-21T10:03:47.764Z,13.63
2017-09-21T10:06:16.741Z,14.60
2017-09-21T10:08:46.481Z,13.80
2017-09-21T10:11:16.261Z,13.13
2017-09-21T10:13:45.220Z,13.07
2017-09-21T10:16:14.248Z,11.93
2017-09-21T10:18:43.239Z,11.83
2017-09-21T10:21:12.193Z,12.80
2017-09-21T10:23:41.208Z,10.97
2017-09-21T10:26:10.288Z,14.80
2017-09-21T10:28:39.537Z,13.30
2017-09-21T10:31:11.040Z,11.30
2017-09-21T10:33:40.808Z,10.30
2017-09-21T10:36:10.801Z,10.00
2017-09-21T10:38:39.831Z,10.23
2017-09-21T10:41:08.854Z,9.67
2017-09-21T10:43:38.751Z,9.47
2017-09-21T10:46:07.743Z,9.60
2017-09-21T10:48:36.748Z,9.80
2017-09-21T10:51:06.659Z,9.57
2017-09-21T10:53:35.695Z,7.50
2017-09-21T10:56:04.687Z,6.60
2017-09-21T10:58:33.747Z,6.03
2017-09-21T11:01:02.766Z,5.70
2017-09-21T11:03:31.825Z,6.97
2017-09-21T11:06:00.768Z,7.00
2017-09-21T11:08:29.755Z,11.67
2017-09-21T11:10:58.736Z,7.57
2017-09-21T11:13:28.433Z,5.97
2017-09-21T11:15:58.155Z,5.57
2017-09-21T11:18:27.195Z,6.20
2017-09-21T11:20:57.822Z,4.30
2017-09-21T11:23:27.632Z,4.20
2017-09-21T11:25:56.613Z,4.50
2017-09-21T11:28:25.608Z,4.20
2017-09-21T11:30:54.572Z,4.40
2017-09-21T11:33:23.784Z,5.87
2017-09-21T11:35:53.033Z,5.93
2017-09-21T11:38:22.749Z,6.17
2017-09-21T11:40:52.155Z,5.30
2017-09-21T11:43:21.498Z,5.17
2017-09-21T11:45:51.437Z,4.67
2017-09-21T11:48:20.879Z,4.63
2017-09-21T11:50:51.086Z,4.03
2017-09-21T11:53:20.856Z,4.30
2017-09-21T11:55:49.899Z,5.03
2017-09-21T11:58:19.800Z,3.67
2017-09-21T12:00:49.544Z,4.70
2017-09-21T12:03:18.548Z,5.73
2017-09-21T12:05:49.156Z,5.90
2017-09-21T12:08:18.926Z,4.57
2017-09-21T12:10:47.936Z,5.00
2017-09-21T12:13:18.577Z,5.07
2017-09-21T12:15:47.531Z,4.20
2017-09-21T12:18:16.517Z,5.47
2017-09-21T12:20:45.533Z,5.10
2017-09-21T12:23:15.988Z,4.30
2017-09-21T12:25:45.092Z,4.93
2017-09-21T12:28:14.060Z,4.00
2017-09-21T12:30:43.849Z,4.93
2017-09-21T12:33:13.146Z,4.70
2017-09-21T12:35:42.136Z,4.00
2017-09-21T12:38:11.134Z,5.10
2017-09-21T12:40:40.177Z,4.87
2017-09-21T12:43:09.235Z,4.60
2017-09-21T12:45:39.058Z,4.40
2017-09-21T12:48:08.963Z,4.57
2017-09-21T12:50:38.772Z,5.23
2017-09-21T12:53:07.811Z,5.93
2017-09-21T12:55:36.772Z,6.13
2017-09-21T12:58:06.530Z,7.03
2017-09-21T13:00:36.736Z,6.23
2017-09-21T13:03:05.752Z,8.07
2017-09-21T13:05:34.763Z,6.00
2017-09-21T13:08:04.180Z,5.40
2017-09-21T13:10:33.254Z,5.40
2017-09-21T13:13:02.366Z,4.80
2017-09-21T13:15:31.308Z,5.43
2017-09-21T13:18:00.285Z,6.57
2017-09-21T13:20:29.245Z,5.57
2017-09-21T13:22:58.978Z,7.30
2017-09-21T13:25:27.937Z,5.50
2017-09-21T13:27:56.924Z,5.70
2017-09-21T13:30:26.846Z,5.30
2017-09-21T13:32:55.812Z,5.97
2017-09-21T13:35:24.829Z,5.63
2017-09-21T13:37:53.839Z,5.53
2017-09-21T13:40:23.631Z,6.20
2017-09-21T13:42:52.606Z,7.53
2017-09-21T13:45:21.556Z,5.93
2017-09-21T13:47:50.516Z,5.83
2017-09-21T13:50:20.235Z,5.57
2017-09-21T13:52:49.206Z,5.30
2017-09-21T13:55:18.964Z,5.30
2017-09-21T13:57:47.937Z,5.03
2017-09-21T14:00:16.894Z,6.13
2017-09-21T14:02:46.774Z,4.60
2017-09-21T14:05:15.714Z,5.70
2017-09-21T14:07:45.452Z,6.17
2017-09-21T14:10:14.396Z,6.20
2017-09-21T14:12:43.382Z,5.70
2017-09-21T14:15:12.324Z,5.83
2017-09-21T14:17:41.315Z,4.97
2017-09-21T14:20:10.271Z,5.40
2017-09-21T14:22:39.986Z,5.80
2017-09-21T14:25:09.732Z,6.07
2017-09-21T14:27:38.676Z,5.90
2017-09-21T14:30:08.434Z,5.40
2017-09-21T14:32:37.376Z,5.30
2017-09-21T14:35:07.104Z,5.60
2017-09-21T14:37:36.810Z,5.43
2017-09-21T14:40:06.584Z,4.80
2017-09-21T14:42:35.538Z,4.83
2017-09-21T14:45:04.532Z,5.50
2017-09-21T14:47:33.483Z,5.90
2017-09-21T14:50:03.844Z,6.20
2017-09-21T14:52:33.196Z,7.30
2017-09-21T14:55:02.177Z,5.80
2017-09-21T14:57:31.165Z,5.90
2017-09-21T15:00:00.144Z,5.20
2017-09-21T15:02:29.092Z,7.43
2017-09-21T15:04:58.055Z,4.90
2017-09-21T15:07:27.089Z,6.27
2017-09-21T15:09:57.157Z,5.00
2017-09-21T15:12:26.189Z,6.23
2017-09-21T15:14:55.264Z,6.00
2017-09-21T15:17:25.217Z,4.60
2017-09-21T15:19:54.265Z,5.23
2017-09-21T15:22:23.279Z,5.70
2017-09-21T15:24:52.293Z,6.60
2017-09-21T15:27:21.351Z,4.67
2017-09-21T15:29:51.614Z,4.70
2017-09-21T15:32:20.612Z,5.90
2017-09-21T15:34:49.615Z,6.00
2017-09-21T15:37:18.678Z,5.20
2017-09-21T15:39:48.745Z,4.47
2017-09-21T15:42:17.727Z,5.47
2017-09-21T15:44:46.734Z,6.50
2017-09-21T15:47:15.680Z,5.20
2017-09-21T15:49:45.118Z,5.87
2017-09-21T15:52:14.125Z,5.77
2017-09-21T15:54:44.584Z,5.30
2017-09-21T15:57:13.612Z,5.67
2017-09-21T15:59:42.616Z,5.37
2017-09-21T16:02:13.108Z,5.53
2017-09-21T16:04:42.119Z,4.80
2017-09-21T16:07:11.125Z,4.87
2017-09-21T16:09:40.225Z,6.80
2017-09-21T16:12:10.097Z,5.17
2017-09-21T16:14:40.645Z,6.00
2017-09-21T16:17:10.488Z,4.87
2017-09-21T16:19:39.508Z,4.80
2017-09-21T16:22:09.225Z,4.57
2017-09-21T16:24:38.964Z,5.00
2017-09-21T16:27:07.985Z,5.30
2017-09-21T16:29:37.727Z,6.00
2017-09-21T16:32:07.550Z,4.97
2017-09-21T16:34:38.185Z,5.00
2017-09-21T16:37:07.182Z,6.17
2017-09-21T16:39:36.241Z,7.23
2017-09-21T16:42:05.233Z,5.00
2017-09-21T16:44:35.003Z,5.53
2017-09-21T16:47:04.020Z,5.60
2017-09-21T16:49:32.985Z,5.47
2017-09-21T16:52:02.029Z,5.90
2017-09-21T16:54:31.509Z,5.27
2017-09-21T16:57:00.961Z,5.70
2017-09-21T16:59:30.548Z,5.87
2017-09-21T17:02:00.667Z,5.17
2017-09-21T17:04:30.808Z,8.67
2017-09-21T17:06:59.785Z,5.47
2017-09-21T17:09:29.517Z,6.13
2017-09-21T17:11:59.498Z,5.17
2017-09-21T17:14:29.042Z,6.30
2017-09-21T17:16:58.915Z,5.40
2017-09-21T17:19:28.286Z,4.97
2017-09-21T17:21:57.707Z,6.10
2017-09-21T17:24:26.648Z,5.30
2017-09-21T17:26:55.693Z,5.30
2017-09-21T17:29:25.094Z,5.80
2017-09-21T17:31:54.086Z,5.63
2017-09-21T17:34:23.109Z,5.63
2017-09-21T17:36:52.075Z,5.57
2017-09-21T17:39:21.037Z,8.40
2017-09-21T17:41:50.062Z,5.47
2017-09-21T17:44:19.060Z,6.60
2017-09-21T17:46:48.012Z,6.37
2017-09-21T17:49:16.986Z,6.03
2017-09-21T17:51:46.697Z,5.50
2017-09-21T17:54:15.686Z,6.10
2017-09-21T17:56:44.655Z,7.23
2017-09-21T17:59:14.389Z,6.53
2017-09-21T18:01:43.731Z,6.30
2017-09-21T18:04:12.705Z,6.03
2017-09-21T18:06:41.650Z,6.47
2017-09-21T18:09:10.650Z,6.90
2017-09-21T18:11:39.609Z,6.80
2017-09-21T18:14:09.530Z,5.70
2017-09-21T18:16:39.245Z,6.33
2017-09-21T18:19:09.070Z,6.53
2017-09-21T18:21:38.006Z,7.47
2017-09-21T18:24:06.997Z,8.00
2017-09-21T18:26:36.717Z,7.37
2017-09-21T18:29:05.703Z,7.00
2017-09-21T18:31:34.669Z,8.37
2017-09-21T18:34:03.658Z,8.13
2017-09-21T18:36:32.661Z,11.30
2017-09-21T18:39:01.659Z,14.03
2017-09-21T18:41:30.638Z,13.53
2017-09-21T18:43:59.625Z,13.37
2017-09-21T18:46:28.665Z,14.57
2017-09-21T18:48:58.452Z,12.50
2017-09-21T18:51:27.544Z,11.70
2017-09-21T18:53:56.561Z,10.47
2017-09-21T18:56:26.291Z,9.30
2017-09-21T18:58:55.325Z,9.73
2017-09-21T19:01:25.103Z,11.07
2017-09-21T19:03:54.111Z,9.87
2017-09-21T19:06:23.568Z,10.07
2017-09-21T19:08:52.686Z,10.13
2017-09-21T19:11:23.252Z,9.83
2017-09-21T19:13:53.728Z,9.60
2017-09-21T19:16:22.775Z,9.73
2017-09-21T19:18:51.769Z,9.67
2017-09-21T19:21:20.729Z,9.97
2017-09-21T19:23:49.743Z,9.90
2017-09-21T19:26:18.865Z,9.00
2017-09-21T19:28:47.944Z,9.70
2017-09-21T19:31:16.914Z,9.73
2017-09-21T19:33:46.762Z,10.03
2017-09-21T19:36:15.739Z,9.80
2017-09-21T19:38:44.720Z,10.43
2017-09-21T19:41:13.711Z,13.10
2017-09-21T19:43:42.748Z,9.80
2017-09-21T19:46:11.754Z,9.73
2017-09-21T19:48:41.526Z,9.93
2017-09-21T19:51:10.496Z,9.67
2017-09-21T19:53:39.540Z,10.83
2017-09-21T19:56:09.322Z,10.67
2017-09-21T19:58:38.551Z,10.13
2017-09-21T20:01:08.680Z,9.20
2017-09-21T20:03:38.069Z,11.20
2017-09-21T20:06:07.814Z,11.93
2017-09-21T20:08:37.567Z,11.40
2017-09-21T20:11:07.366Z,11.70
2017-09-21T20:13:36.356Z,11.43
2017-09-21T20:16:05.731Z,11.57
2017-09-21T20:18:34.776Z,12.47
2017-09-21T20:21:03.741Z,11.77
2017-09-21T20:23:34.597Z,12.37
2017-09-21T20:26:03.673Z,11.53
2017-09-21T20:28:32.660Z,13.30
2017-09-21T20:31:16.529Z,12.93
2017-09-21T20:33:49.207Z,11.73
2017-09-21T20:36:20.022Z,14.27
2017-09-21T20:38:49.797Z,14.40
2017-09-21T20:41:19.631Z,15.13
2017-09-21T20:43:49.509Z,13.43
2017-09-21T20:46:18.530Z,14.53
2017-09-21T20:48:47.484Z,16.57
2017-09-21T20:51:17.248Z,15.40
2017-09-21T20:53:46.218Z,14.43
2017-09-21T20:56:15.261Z,15.03
2017-09-21T20:58:44.251Z,15.57
2017-09-21T21:01:14.510Z,14.77
2017-09-21T21:03:44.267Z,16.50
2017-09-21T21:06:16.759Z,15.73
2017-09-21T21:08:46.436Z,14.57
2017-09-21T21:11:15.436Z,13.90
2017-09-21T21:13:44.424Z,16.87
2017-09-21T21:16:13.411Z,14.87
2017-09-21T21:18:42.376Z,13.63
2017-09-21T21:21:11.761Z,14.80
2017-09-21T21:23:40.741Z,13.97
2017-09-21T21:26:10.501Z,14.50
2017-09-21T21:28:39.456Z,14.83
2017-09-21T21:31:08.442Z,15.57
2017-09-21T21:33:37.427Z,16.43
2017-09-21T21:36:07.205Z,15.70
2017-09-21T21:38:36.953Z,16.13
2017-09-21T21:41:06.323Z,17.00
2017-09-21T21:43:35.281Z,16.90
2017-09-21T21:46:04.300Z,15.43
2017-09-21T21:48:33.247Z,17.00
2017-09-21T21:51:02.223Z,16.60
2017-09-21T21:53:31.209Z,16.83
2017-09-21T21:56:00.233Z,16.20
2017-09-21T21:58:29.195Z,15.87
2017-09-21T22:00:58.957Z,16.97
2017-09-21T22:03:27.918Z,18.03
2017-09-21T22:05:56.889Z,17.97
2017-09-21T22:08:26.612Z,18.20
2017-09-21T22:10:55.595Z,16.63
2017-09-21T22:13:25.323Z,15.93
2017-09-21T22:15:54.318Z,16.23
2017-09-21T22:18:23.315Z,15.97
2017-09-21T22:20:52.289Z,17.07
2017-09-21T22:23:21.657Z,18.73
2017-09-21T22:25:51.421Z,19.80
2017-09-21T22:28:21.145Z,18.90
2017-09-21T22:30:50.105Z,19.93
2017-09-21T22:33:19.089Z,20.27
2017-09-21T22:35:48.057Z,18.63
2017-09-21T22:38:17.813Z,18.33
2017-09-21T22:40:46.802Z,18.50
2017-09-21T22:43:15.762Z,18.60
2017-09-21T22:45:45.520Z,18.57
2017-09-21T22:48:14.512Z,18.10
2017-09-21T22:50:43.475Z,18.93
2017-09-21T22:53:12.455Z,18.97
2017-09-21T22:55:41.441Z,18.93
2017-09-21T22:58:10.417Z,18.53
2017-09-21T23:00:40.165Z,18.83
2017-09-21T23:03:09.142Z,17.23
2017-09-21T23:05:38.092Z,21.17
2017-09-21T23:08:07.841Z,18.17
2017-09-21T23:10:36.817Z,18.60
2017-09-21T23:13:05.813Z,17.57
2017-09-21T23:15:34.774Z,18.00
2017-09-21T23:18:03.765Z,18.03
2017-09-21T23:20:32.791Z,18.17
2017-09-21T23:23:02.526Z,17.90
2017-09-21T23:25:31.480Z,19.40
2017-09-21T23:28:01.245Z,18.87
2017-09-21T23:30:30.212Z,18.40
2017-09-21T23:32:59.184Z,20.43
2017-09-21T23:35:28.274Z,20.20
2017-09-21T23:37:57.998Z,20.30
2017-09-21T23:40:26.976Z,21.17
2017-09-21T23:42:56.338Z,19.00
2017-09-21T23:45:25.319Z,21.00
2017-09-21T23:47:54.363Z,19.70
2017-09-21T23:50:23.344Z,21.63
2017-09-21T23:52:53.067Z,21.47
2017-09-21T23:55:22.052Z,20.30
2017-09-21T23:57:51.410Z,20.73
